createdAt,value
2023-02-14T00:01:16.460Z,100241.39
2023-02-14T00:02:14.406Z,100242.99
2023-02-14T00:03:21.394Z,100247.55
2023-02-14T00:04:24.373Z,100247.55
2023-02-14T00:05:31.709Z,100234.48
2023-02-14T00:06:38.693Z,100222.39
2023-02-14T00:07:46.463Z,100227.70
2023-02-14T00:08:56.761Z,100225.05
2023-02-14T00:10:00.430Z,100225.05
2023-02-14T00:11:08.790Z,100223.12
2023-02-14T00:12:15.950Z,100209.85
2023-02-14T00:13:23.117Z,100215.16
2023-02-14T00:14:27.343Z,100218.78
2023-02-14T00:15:34.586Z,100220.47
2023-02-14T00:16:42.015Z,100228.42
2023-02-14T00:17:47.791Z,100223.96
2023-02-14T00:18:53.414Z,100218.56
2023-02-14T00:20:10.547Z,100216.67
2023-02-14T00:21:04.961Z,100216.67
2023-02-14T00:22:08.950Z,100222.73
2023-02-14T00:23:15.520Z,100210.52
2023-02-14T00:24:26.642Z,100206.05
2023-02-14T00:25:37.437Z,100222.19
2023-02-14T00:26:47.250Z,100216.00
2023-02-14T00:27:56.094Z,100209.01
2023-02-14T00:29:01.609Z,100204.55
2023-02-14T00:30:13.088Z,100194.98
2023-02-14T00:31:16.531Z,100192.25
2023-02-14T00:32:22.286Z,100211.78
2023-02-14T00:33:27.434Z,100210.06
2023-02-14T00:34:31.530Z,100210.06
2023-02-14T00:35:38.262Z,100198.52
2023-02-14T00:36:42.653Z,100199.23
2023-02-14T00:37:48.284Z,100207.11
2023-02-14T00:38:57.037Z,100194.14
2023-02-14T00:40:05.617Z,100192.25
2023-02-14T00:41:11.275Z,100201.17
2023-02-14T00:42:17.572Z,100202.86
2023-02-14T00:43:23.865Z,100204.55
2023-02-14T00:44:30.839Z,100193.21
2023-02-14T00:45:40.945Z,100199.36
2023-02-14T00:46:48.384Z,100191.49
2023-02-14T00:47:54.120Z,100198.52
2023-02-14T00:49:01.365Z,100190.34
2023-02-14T00:50:32.644Z,100190.34
2023-02-14T00:51:17.496Z,100200.96
2023-02-14T00:52:23.160Z,100196.59
2023-02-14T00:53:33.819Z,100196.59
2023-02-14T00:54:33.081Z,100208.80
2023-02-14T00:55:38.706Z,100197.44
2023-02-14T00:56:42.821Z,100193.72
2023-02-14T00:57:50.442Z,100205.39
2023-02-14T00:58:56.638Z,100205.39
2023-02-14T01:00:01.483Z,100186.31
2023-02-14T01:01:06.251Z,100193.94
2023-02-14T01:02:11.600Z,100198.19
2023-02-14T01:03:16.111Z,100198.19
2023-02-14T01:04:29.380Z,100198.31
2023-02-14T01:05:35.373Z,100190.34
2023-02-14T01:06:39.712Z,100193.72
2023-02-14T01:07:45.444Z,100185.67
2023-02-14T01:08:49.576Z,100189.17
2023-02-14T01:09:53.701Z,100168.06
2023-02-14T01:10:58.457Z,100175.15
2023-02-14T01:12:04.400Z,100178.02
2023-02-14T01:13:11.557Z,100177.17
2023-02-14T01:14:22.041Z,100165.50
2023-02-14T01:15:27.340Z,100169.13
2023-02-14T01:16:33.558Z,100174.43
2023-02-14T01:17:39.196Z,100174.43
2023-02-14T01:18:43.746Z,100155.73
2023-02-14T01:19:47.950Z,100155.73
2023-02-14T01:20:58.248Z,100149.89
2023-02-14T01:22:06.944Z,100149.89
2023-02-14T01:23:13.157Z,100148.11
2023-02-14T01:24:22.559Z,100159.66
2023-02-14T01:25:27.211Z,100160.41
2023-02-14T01:26:33.769Z,100159.36
2023-02-14T01:27:37.864Z,100149.80
2023-02-14T01:28:46.220Z,100151.48
2023-02-14T01:29:51.880Z,100147.90
2023-02-14T01:30:59.016Z,100149.59
2023-02-14T01:32:03.610Z,100149.59
2023-02-14T01:33:10.670Z,100133.66
2023-02-14T01:34:29.455Z,100148.11
2023-02-14T01:35:24.533Z,100154.05
2023-02-14T01:36:34.452Z,100142.80
2023-02-14T01:37:38.785Z,100150.55
2023-02-14T01:38:42.868Z,100157.33
2023-02-14T01:39:47.005Z,100150.43
2023-02-14T01:40:56.266Z,100139.72
2023-02-14T01:42:03.816Z,100150.22
2023-02-14T01:43:15.684Z,100134.30
2023-02-14T01:44:28.689Z,100105.44
2023-02-14T01:45:32.997Z,100116.47
2023-02-14T01:46:40.360Z,100119.88
2023-02-14T01:47:55.315Z,100113.73
2023-02-14T01:49:07.821Z,100113.73
2023-02-14T01:50:24.064Z,100119.88
2023-02-14T01:51:30.574Z,100136.64
2023-02-14T01:52:40.416Z,100136.64
2023-02-14T01:53:45.145Z,100114.13
2023-02-14T01:54:57.860Z,100135.17
2023-02-14T01:56:09.917Z,100135.17
2023-02-14T01:57:13.643Z,100117.53
2023-02-14T01:58:24.587Z,100119.03
2023-02-14T01:59:33.122Z,100127.93
2023-02-14T02:00:38.688Z,100127.93
2023-02-14T02:01:48.427Z,100113.52
2023-02-14T02:02:54.413Z,100116.16
2023-02-14T02:04:01.507Z,100106.39
2023-02-14T02:05:07.245Z,100122.31
2023-02-14T02:06:19.448Z,100114.36
2023-02-14T02:07:25.934Z,100117.84
2023-02-14T02:08:30.316Z,100111.61
2023-02-14T02:09:50.637Z,100107.14
2023-02-14T02:11:08.827Z,100105.55
2023-02-14T02:12:13.587Z,100094.63
2023-02-14T02:13:20.377Z,100090.38
2023-02-14T02:14:25.038Z,100096.53
2023-02-14T02:15:33.719Z,100085.08
2023-02-14T02:16:49.712Z,100085.08
2023-02-14T02:18:14.378Z,100082.30
2023-02-14T02:19:47.329Z,100091.00
2023-02-14T02:21:15.625Z,100091.00
2023-02-14T02:22:38.914Z,100099.94
2023-02-14T02:25:50.948Z,100110.64
2023-02-14T02:27:08.438Z,100086.76
2023-02-14T02:28:32.823Z,100093.88
2023-02-14T02:29:45.679Z,100089.41
2023-02-14T02:31:00.851Z,100073.58
2023-02-14T02:32:26.604Z,100055.88
2023-02-14T02:33:35.365Z,100053.23
2023-02-14T02:35:14.041Z,100050.58
2023-02-14T02:36:30.036Z,100065.53
2023-02-14T02:37:43.003Z,100060.22
2023-02-14T02:39:24.698Z,100060.22
2023-02-14T02:40:49.965Z,100078.80
2023-02-14T02:42:16.692Z,100078.80
2023-02-14T02:43:46.207Z,100076.58
2023-02-14T02:45:15.970Z,100076.58
2023-02-14T02:46:30.224Z,100073.80
2023-02-14T02:47:41.644Z,100085.48
2023-02-14T02:48:58.996Z,100085.26
2023-02-14T02:50:11.565Z,100092.59
2023-02-14T02:51:21.767Z,100097.81
2023-02-14T02:52:28.873Z,100096.97
2023-02-14T02:53:45.038Z,100068.84
2023-02-14T02:54:55.026Z,100072.12
2023-02-14T02:56:07.860Z,100081.89
2023-02-14T02:57:14.981Z,100082.83
2023-02-14T02:58:28.548Z,100089.72
2023-02-14T02:59:35.765Z,100092.28
2023-02-14T03:00:42.229Z,100080.92
2023-02-14T03:01:56.299Z,100101.40
2023-02-14T03:03:03.229Z,100055.79
2023-02-14T03:04:12.900Z,100055.79
2023-02-14T03:05:16.170Z,100108.95
2023-02-14T03:06:20.457Z,100123.91
2023-02-14T03:07:39.260Z,100123.91
2023-02-14T03:08:46.954Z,100113.30
2023-02-14T03:10:02.520Z,100122.94
2023-02-14T03:11:11.860Z,100111.61
2023-02-14T03:12:36.744Z,100125.59
2023-02-14T03:14:01.431Z,100123.91
2023-02-14T03:15:12.816Z,100125.59
2023-02-14T03:16:26.299Z,100129.22
2023-02-14T03:17:39.170Z,100145.89
2023-02-14T03:19:04.359Z,100134.52
2023-02-14T03:20:28.776Z,100137.27
2023-02-14T03:21:44.403Z,100131.87
2023-02-14T03:22:54.150Z,100141.52
2023-02-14T03:24:19.919Z,100148.76
2023-02-14T03:25:43.344Z,100150.45
2023-02-14T03:27:09.376Z,100136.64
2023-02-14T03:28:20.429Z,100160.52
2023-02-14T03:29:36.807Z,100150.88
2023-02-14T03:30:46.631Z,100147.69
2023-02-14T03:32:04.088Z,100150.64
2023-02-14T03:33:14.244Z,100139.19
2023-02-14T03:34:36.173Z,100147.98
2023-02-14T03:35:44.917Z,100152.66
2023-02-14T03:36:58.839Z,100154.35
2023-02-14T03:38:23.973Z,100155.53
2023-02-14T03:39:41.921Z,100163.48
2023-02-14T03:40:55.125Z,100158.27
2023-02-14T03:42:12.737Z,100172.17
2023-02-14T03:43:19.224Z,100171.75
2023-02-14T03:44:28.219Z,100163.16
2023-02-14T03:45:35.442Z,100173.77
2023-02-14T03:46:55.900Z,100172.26
2023-02-14T03:48:04.505Z,100174.82
2023-02-14T03:49:15.376Z,100175.66
2023-02-14T03:50:24.259Z,100172.26
2023-02-14T03:51:31.099Z,100173.95
2023-02-14T03:52:37.031Z,100173.95
2023-02-14T03:53:44.150Z,100166.95
2023-02-14T03:54:51.146Z,100161.11
2023-02-14T03:56:03.701Z,100161.02
2023-02-14T03:57:25.568Z,100161.02
2023-02-14T03:58:32.603Z,100154.95
2023-02-14T03:59:36.807Z,100152.72
2023-02-14T04:00:43.860Z,100152.72
2023-02-14T04:01:50.872Z,100163.33
2023-02-14T04:02:58.048Z,100161.52
2023-02-14T04:04:04.830Z,100155.67
2023-02-14T04:05:13.265Z,100160.77
2023-02-14T04:06:21.097Z,100157.56
2023-02-14T04:07:25.974Z,100160.77
2023-02-14T04:08:31.146Z,100146.75
2023-02-14T04:09:35.091Z,100153.98
2023-02-14T04:10:39.911Z,100153.98
2023-02-14T04:11:44.301Z,100162.15
2023-02-14T04:12:49.304Z,100170.73
2023-02-14T04:13:53.298Z,100180.30
2023-02-14T04:14:57.259Z,100176.88
2023-02-14T04:16:01.225Z,100167.97
2023-02-14T04:17:08.106Z,100167.24
2023-02-14T04:18:12.067Z,100167.24
2023-02-14T04:19:16.056Z,100172.55
2023-02-14T04:20:20.483Z,100174.23
2023-02-14T04:21:24.644Z,100171.38
2023-02-14T04:22:28.653Z,100172.42
2023-02-14T04:23:32.793Z,100183.88
2023-02-14T04:24:36.793Z,100181.23
2023-02-14T04:25:40.843Z,100183.16
2023-02-14T04:26:45.946Z,100182.83
2023-02-14T04:27:50.032Z,100185.39
2023-02-14T04:28:55.527Z,100193.43
2023-02-14T04:30:02.316Z,100189.84
2023-02-14T04:31:07.244Z,100195.15
2023-02-14T04:32:14.768Z,100189.73
2023-02-14T04:33:18.847Z,100189.73
2023-02-14T04:34:24.507Z,100198.09
2023-02-14T04:35:30.442Z,100195.53
2023-02-14T04:36:34.551Z,100193.55
2023-02-14T04:37:38.839Z,100191.74
2023-02-14T04:38:42.932Z,100196.00
2023-02-14T04:39:47.343Z,100196.00
2023-02-14T04:40:52.624Z,100195.36
2023-02-14T04:41:56.772Z,100196.00
2023-02-14T04:43:00.931Z,100189.18
2023-02-14T04:44:06.569Z,100196.96
2023-02-14T04:45:12.297Z,100199.61
2023-02-14T04:46:17.549Z,100204.25
2023-02-14T04:47:23.162Z,100204.25
2023-02-14T04:48:27.190Z,100210.39
2023-02-14T04:49:31.600Z,100206.89
2023-02-14T04:50:37.557Z,100207.66
2023-02-14T04:51:41.939Z,100195.36
2023-02-14T04:52:46.069Z,100200.66
2023-02-14T04:53:51.692Z,100207.56
2023-02-14T04:54:55.746Z,100200.66
2023-02-14T04:56:04.325Z,100192.59
2023-02-14T04:57:08.555Z,100192.59
2023-02-14T04:58:12.620Z,100202.27
2023-02-14T04:59:16.899Z,100208.29
2023-02-14T05:00:23.310Z,100202.98
2023-02-14T05:01:27.454Z,100216.25
2023-02-14T05:02:31.598Z,100214.56
2023-02-14T05:03:35.642Z,100210.22
2023-02-14T05:04:39.770Z,100206.81
2023-02-14T05:05:43.853Z,100222.52
2023-02-14T05:06:48.175Z,100222.52
2023-02-14T05:07:52.261Z,100231.43
2023-02-14T05:08:57.149Z,100213.92
2023-02-14T05:10:01.341Z,100213.92
2023-02-14T05:11:05.588Z,100215.91
2023-02-14T05:12:09.671Z,100210.39
2023-02-14T05:13:13.795Z,100210.39
2023-02-14T05:14:17.962Z,100205.30
2023-02-14T05:15:22.057Z,100218.47
2023-02-14T05:16:27.902Z,100218.47
2023-02-14T05:17:32.177Z,100206.34
2023-02-14T05:18:36.280Z,100211.44
2023-02-14T05:19:40.408Z,100219.31
2023-02-14T05:20:44.746Z,100222.81
2023-02-14T05:21:50.453Z,100221.20
2023-02-14T05:22:54.693Z,100210.39
2023-02-14T05:23:59.658Z,100205.30
2023-02-14T05:25:03.803Z,100205.30
2023-02-14T05:26:08.627Z,100214.97
2023-02-14T05:27:12.721Z,100194.89
2023-02-14T05:28:20.117Z,100194.89
2023-02-14T05:29:24.178Z,100211.09
2023-02-14T05:30:28.616Z,100198.16
2023-02-14T05:31:32.926Z,100209.32
2023-02-14T05:32:41.593Z,100206.67
2023-02-14T05:33:47.207Z,100211.01
2023-02-14T05:34:53.062Z,100213.66
2023-02-14T05:36:01.806Z,100217.27
2023-02-14T05:37:11.644Z,100218.00
2023-02-14T05:38:17.309Z,100215.06
2023-02-14T05:39:21.630Z,100216.11
2023-02-14T05:41:28.916Z,100218.88
2023-02-14T05:42:32.974Z,100218.88
2023-02-14T05:43:43.176Z,100205.30
2023-02-14T05:44:47.431Z,100205.30
2023-02-14T05:45:51.555Z,100223.02
2023-02-14T05:46:56.256Z,100223.02
2023-02-14T05:48:00.798Z,100230.87
2023-02-14T05:49:05.050Z,100223.65
2023-02-14T05:50:09.924Z,100221.88
2023-02-14T05:51:13.999Z,100225.38
2023-02-14T05:52:18.233Z,100221.00
2023-02-14T05:53:22.412Z,100224.70
2023-02-14T05:54:26.473Z,100227.27
2023-02-14T05:55:30.665Z,100222.92
2023-02-14T05:56:34.728Z,100221.96
2023-02-14T05:57:40.290Z,100221.88
2023-02-14T05:58:46.483Z,100228.87
2023-02-14T05:59:50.620Z,100220.06
2023-02-14T06:00:56.740Z,100220.06
2023-02-14T06:02:00.938Z,100225.92
2023-02-14T06:03:05.213Z,100232.28
2023-02-14T06:04:09.438Z,100239.91
2023-02-14T06:05:13.435Z,100243.11
2023-02-14T06:06:18.457Z,100242.73
2023-02-14T06:07:22.405Z,100241.68
2023-02-14T06:08:26.491Z,100234.56
2023-02-14T06:09:30.633Z,100230.02
2023-02-14T06:10:34.689Z,100233.19
2023-02-14T06:11:38.717Z,100235.84
2023-02-14T06:12:42.720Z,100237.44
2023-02-14T06:13:49.861Z,100236.38
2023-02-14T06:14:54.024Z,100232.59
2023-02-14T06:15:58.299Z,100229.48
2023-02-14T06:17:02.443Z,100236.30
2023-02-14T06:18:11.858Z,100227.49
2023-02-14T06:19:17.417Z,100240.34
2023-02-14T06:20:23.030Z,100242.99
2023-02-14T06:21:27.083Z,100239.38
2023-02-14T06:22:33.448Z,100238.98
2023-02-14T06:23:37.514Z,100238.98
2023-02-14T06:24:41.577Z,100229.21
2023-02-14T06:25:45.682Z,100241.52
2023-02-14T06:26:52.794Z,100241.52
2023-02-14T06:28:00.153Z,100237.50
2023-02-14T06:29:12.431Z,100233.80
2023-02-14T06:30:18.298Z,100239.73
2023-02-14T06:31:24.346Z,100236.02
2023-02-14T06:32:30.338Z,100231.47
2023-02-14T06:33:37.380Z,100234.13
2023-02-14T06:34:41.521Z,100236.89
2023-02-14T06:35:45.724Z,100224.36
2023-02-14T06:36:49.796Z,100224.36
2023-02-14T06:37:55.420Z,100234.77
2023-02-14T06:38:59.815Z,100226.80
2023-02-14T06:40:04.122Z,100229.45
2023-02-14T06:41:10.771Z,100234.14
2023-02-14T06:42:14.896Z,100232.64
2023-02-14T06:43:19.015Z,100234.23
2023-02-14T06:44:26.087Z,100228.70
2023-02-14T06:45:31.902Z,100233.05
2023-02-14T06:46:36.381Z,100230.93
2023-02-14T06:47:40.691Z,100231.47
2023-02-14T06:48:46.828Z,100229.25
2023-02-14T06:49:53.212Z,100223.28
2023-02-14T06:50:59.478Z,100225.62
2023-02-14T06:52:06.064Z,100218.94
2023-02-14T06:53:11.760Z,100218.36
2023-02-14T06:54:17.662Z,100216.01
2023-02-14T06:55:24.914Z,100202.41
2023-02-14T06:56:31.222Z,100208.98
2023-02-14T06:57:37.071Z,100235.86
2023-02-14T06:58:41.274Z,100235.86
2023-02-14T06:59:45.334Z,100236.09
2023-02-14T07:00:51.979Z,100232.45
2023-02-14T07:01:57.650Z,100231.48
2023-02-14T07:03:02.088Z,100234.59
2023-02-14T07:04:06.325Z,100235.96
2023-02-14T07:05:12.049Z,100213.63
2023-02-14T07:06:17.350Z,100232.16
2023-02-14T07:07:21.494Z,100241.05
2023-02-14T07:08:26.751Z,100231.91
2023-02-14T07:09:34.037Z,100231.91
2023-02-14T07:10:40.352Z,100232.95
2023-02-14T07:11:52.223Z,100241.45
2023-02-14T07:12:53.053Z,100229.70
2023-02-14T07:14:00.678Z,100235.55
2023-02-14T07:15:12.044Z,100242.87
2023-02-14T07:16:14.825Z,100237.22
2023-02-14T07:17:18.943Z,100239.29
2023-02-14T07:18:23.082Z,100236.20
2023-02-14T07:19:27.226Z,100237.88
2023-02-14T07:20:34.933Z,100230.00
2023-02-14T07:21:40.357Z,100229.56
2023-02-14T07:22:46.209Z,100216.36
2023-02-14T07:23:54.724Z,100222.77
2023-02-14T07:25:07.799Z,100223.61
2023-02-14T07:26:16.175Z,100223.61
2023-02-14T07:27:24.803Z,100227.24
2023-02-14T07:28:29.224Z,100234.25
2023-02-14T07:29:36.338Z,100216.87
2023-02-14T07:30:40.786Z,100223.03
2023-02-14T07:31:46.733Z,100228.49
2023-02-14T07:32:51.143Z,100232.94
2023-02-14T07:34:02.521Z,100230.64
2023-02-14T07:35:07.280Z,100220.00
2023-02-14T07:36:13.894Z,100222.94
2023-02-14T07:37:18.408Z,100245.24
2023-02-14T07:38:22.715Z,100228.77
2023-02-14T07:39:31.087Z,100227.32
2023-02-14T07:40:37.421Z,100231.19
2023-02-14T07:41:41.593Z,100223.72
2023-02-14T07:42:49.734Z,100215.36
2023-02-14T07:43:53.089Z,100224.48
2023-02-14T07:44:59.607Z,100215.16
2023-02-14T08:09:53.209Z,100240.55
2023-02-14T08:11:00.186Z,100245.53
2023-02-14T08:12:04.641Z,100241.15
2023-02-14T08:13:10.222Z,100234.60
2023-02-14T08:14:21.449Z,100234.60
2023-02-14T08:15:21.659Z,100231.30
2023-02-14T08:16:27.609Z,100231.30
2023-02-14T08:17:34.856Z,100254.62
2023-02-14T08:18:42.468Z,100259.70
2023-02-14T08:19:49.367Z,100259.70
2023-02-14T08:20:52.405Z,100247.38
2023-02-14T08:22:02.154Z,100245.57
2023-02-14T08:23:08.091Z,100250.98
2023-02-14T08:24:14.480Z,100247.84
2023-02-14T08:25:20.357Z,100254.09
2023-02-14T08:26:26.069Z,100249.52
2023-02-14T08:27:31.856Z,100243.36
2023-02-14T08:28:37.739Z,100247.70
2023-02-14T08:29:43.310Z,100244.11
2023-02-14T08:30:47.559Z,100249.42
2023-02-14T08:31:55.112Z,100249.42
2023-02-14T08:32:59.572Z,100254.22
2023-02-14T08:34:12.018Z,100249.75
2023-02-14T08:35:19.280Z,100245.27
2023-02-14T08:36:26.354Z,100252.95
2023-02-14T08:37:31.890Z,100251.80
2023-02-14T08:38:35.962Z,100249.75
2023-02-14T08:39:40.420Z,100257.11
2023-02-14T08:40:46.406Z,100249.98
2023-02-14T08:41:52.046Z,100262.08
2023-02-14T08:43:13.766Z,100251.66
2023-02-14T08:44:23.836Z,100244.53
2023-02-14T08:45:31.020Z,100244.53
2023-02-14T08:46:40.353Z,100252.34
2023-02-14T08:47:45.978Z,100255.52
2023-02-14T08:49:02.164Z,100251.66
2023-02-14T08:50:12.121Z,100257.95
2023-02-14T08:51:27.637Z,100257.95
2023-02-14T08:54:05.061Z,100255.30
2023-02-14T08:55:18.535Z,100264.95
2023-02-14T08:56:23.850Z,100259.64
2023-02-14T08:57:30.891Z,100259.64
2023-02-14T08:58:37.658Z,100245.20
2023-02-14T08:59:44.340Z,100257.66
2023-02-14T09:00:50.204Z,100245.08
2023-02-14T09:01:58.741Z,100247.86
2023-02-14T09:03:05.809Z,100248.70
2023-02-14T09:04:11.586Z,100259.34
2023-02-14T09:05:19.982Z,100259.34
2023-02-14T09:06:29.639Z,100261.70
2023-02-14T09:07:33.518Z,100266.48
2023-02-14T09:08:42.076Z,100283.80
2023-02-14T09:09:48.055Z,100269.98
2023-02-14T09:10:57.988Z,100277.86
2023-02-14T09:12:17.378Z,100277.86
2023-02-14T10:12:32.051Z,100255.14
2023-02-14T10:13:50.370Z,100258.96
2023-02-14T10:15:12.368Z,100252.93
2023-02-14T10:16:28.587Z,100239.41
2023-02-14T10:17:44.502Z,100241.84
2023-02-14T10:19:03.753Z,100243.52
2023-02-14T10:20:18.008Z,100229.70
2023-02-14T10:21:26.318Z,100237.27
2023-02-14T10:23:08.629Z,100247.45
2023-02-14T10:24:38.081Z,100228.22
2023-02-14T10:27:33.756Z,100246.27
2023-02-14T10:28:49.528Z,100239.00
2023-02-14T10:29:55.131Z,100239.00
2023-02-14T10:31:25.669Z,100240.49
2023-02-14T10:32:38.149Z,100234.84
2023-02-14T10:33:45.448Z,100219.72
2023-02-14T10:34:54.688Z,100243.67
2023-02-14T10:36:09.607Z,100244.28
2023-02-14T10:37:28.035Z,100236.63
2023-02-14T10:38:48.126Z,100249.38
2023-02-14T10:40:13.083Z,100248.20
2023-02-14T10:41:30.212Z,100259.12
2023-02-14T10:42:51.986Z,100252.44
2023-02-14T10:44:05.047Z,100250.49
2023-02-14T10:45:33.601Z,100238.86
2023-02-14T10:46:57.454Z,100239.37
2023-02-14T10:48:17.915Z,100218.14
2023-02-14T10:49:28.024Z,100215.81
2023-02-14T10:50:42.349Z,100231.91
2023-02-14T10:51:52.428Z,100227.94
2023-02-14T10:53:08.194Z,100240.27
2023-02-14T10:54:20.985Z,100224.63
2023-02-14T10:55:49.382Z,100171.28
2023-02-14T10:57:27.411Z,100242.97
2023-02-14T10:58:34.215Z,100244.46
2023-02-14T10:59:54.808Z,100247.83
2023-02-14T11:01:06.294Z,100245.17
2023-02-14T11:02:31.339Z,100244.84
2023-02-14T11:03:38.442Z,100239.41
2023-02-14T11:04:57.406Z,100248.58
2023-02-14T11:05:57.287Z,100225.47
2023-02-14T11:07:03.318Z,100231.48
2023-02-14T11:08:29.724Z,100237.88
2023-02-14T11:09:36.730Z,100235.55
2023-02-14T11:10:45.779Z,100226.22
2023-02-14T11:11:55.899Z,100245.63
2023-02-14T11:13:00.287Z,100249.83
2023-02-14T11:14:33.289Z,100249.83
2023-02-14T11:15:43.508Z,100234.25
2023-02-14T11:16:53.815Z,100236.40
2023-02-14T11:18:23.792Z,100235.45
2023-02-14T11:19:37.636Z,100249.27
2023-02-14T11:20:43.369Z,100252.36
2023-02-14T11:21:58.073Z,100252.36
2023-02-14T11:23:21.535Z,100229.63
2023-02-14T11:24:46.902Z,100239.75
2023-02-14T11:25:58.230Z,100246.98
2023-02-14T11:27:20.683Z,100221.30
2023-02-14T11:29:43.034Z,100233.63
2023-02-14T11:31:01.930Z,100241.51
2023-02-14T11:31:55.116Z,100246.92
2023-02-14T11:33:02.194Z,100243.81
2023-02-14T11:34:28.781Z,100243.09
2023-02-14T11:35:03.365Z,100221.30
2023-02-14T11:35:40.394Z,100235.55
2023-02-14T11:36:50.764Z,100245.02
2023-02-14T11:38:05.307Z,100245.02
2023-02-14T11:39:28.281Z,100244.78
2023-02-14T11:40:42.520Z,100235.34
2023-02-14T11:41:58.494Z,100243.36
2023-02-14T11:43:15.900Z,100235.91
2023-02-14T11:44:30.064Z,100229.77
2023-02-14T11:45:45.099Z,100226.27
2023-02-14T11:46:57.463Z,100241.77
2023-02-14T11:48:38.253Z,100244.44
2023-02-14T11:49:39.073Z,100250.20
2023-02-14T11:50:47.157Z,100253.80
2023-02-14T11:52:01.812Z,100255.94
2023-02-14T11:53:07.684Z,100249.16
2023-02-14T11:54:16.634Z,100264.05
2023-02-14T11:55:28.025Z,100263.20
2023-02-14T11:56:56.412Z,100264.88
2023-02-14T11:58:02.549Z,100260.63
2023-02-14T11:59:08.432Z,100250.75
2023-02-14T12:00:21.850Z,100254.17
2023-02-14T12:01:33.041Z,100239.16
2023-02-14T12:02:50.081Z,100262.77
2023-02-14T12:04:32.749Z,100262.77
2023-02-14T12:05:47.606Z,100248.31
2023-02-14T12:06:55.267Z,100264.37
2023-02-14T12:08:07.431Z,100264.37
2023-02-14T12:09:22.669Z,100251.92
2023-02-14T12:10:34.095Z,100251.08
2023-02-14T12:11:34.969Z,100255.78
2023-02-14T12:12:40.551Z,100243.16
2023-02-14T12:13:56.488Z,100254.28
2023-02-14T12:15:39.717Z,100235.27
2023-02-14T12:16:58.653Z,100235.27
2023-02-14T12:18:27.047Z,100251.92
2023-02-14T12:19:39.245Z,100251.92
2023-02-14T12:22:07.775Z,100244.48
2023-02-14T12:22:56.357Z,100247.14
2023-02-14T12:23:17.388Z,100243.09
2023-02-14T12:24:33.374Z,100251.59
2023-02-14T12:25:45.197Z,100254.25
2023-02-14T12:27:01.112Z,100256.69
2023-02-14T12:28:08.316Z,100248.93
2023-02-14T12:29:27.409Z,100238.92
2023-02-14T12:30:34.739Z,100258.82
2023-02-14T12:31:38.924Z,100254.92
2023-02-14T12:32:56.563Z,100255.41
2023-02-14T12:34:01.200Z,100253.11
2023-02-14T12:35:30.710Z,100261.92
2023-02-14T12:36:47.583Z,100268.70
2023-02-14T12:38:09.689Z,100259.14
2023-02-14T12:39:34.544Z,100263.39
2023-02-14T12:40:59.711Z,100272.02
2023-02-14T12:42:17.908Z,100272.73
2023-02-14T12:43:36.752Z,100272.73
2023-02-14T12:44:49.685Z,100262.52
2023-02-14T12:46:05.572Z,100262.52
2023-02-14T12:47:27.657Z,100251.66
2023-02-14T12:49:03.288Z,100262.75
2023-02-14T12:50:16.331Z,100256.16
2023-02-14T12:51:34.888Z,100271.47
2023-02-14T12:52:54.063Z,100256.36
2023-02-14T12:54:15.608Z,100270.73
2023-02-14T12:55:31.472Z,100259.34
2023-02-14T12:56:58.932Z,100268.06
2023-02-14T12:58:05.136Z,100268.06
2023-02-14T12:59:42.187Z,100262.97
2023-02-14T13:00:55.310Z,100262.97
2023-02-14T13:02:21.884Z,100267.22
2023-02-14T13:03:40.230Z,100271.17
2023-02-14T13:05:18.775Z,100271.17
2023-02-14T13:06:32.883Z,100269.59
2023-02-14T13:07:49.188Z,100267.87
2023-02-14T13:09:13.185Z,100269.28
2023-02-14T13:10:46.019Z,100280.14
2023-02-14T13:11:53.143Z,99853.78
2023-02-14T13:13:24.370Z,100275.45
2023-02-14T13:14:41.428Z,100275.88
2023-02-14T13:16:10.854Z,100282.16
2023-02-14T13:17:27.778Z,100277.59
2023-02-14T13:18:55.040Z,100273.75
2023-02-14T13:20:26.430Z,100284.50
2023-02-14T13:21:33.994Z,100270.47
2023-02-14T13:22:40.818Z,100274.28
2023-02-14T13:23:53.770Z,100271.31
2023-02-14T13:25:07.188Z,100264.94
2023-02-14T13:26:15.893Z,100273.88
2023-02-14T13:27:29.970Z,100279.19
2023-02-14T13:28:36.310Z,100279.19
2023-02-14T13:29:46.120Z,100288.11
2023-02-14T13:30:53.020Z,100275.04
2023-02-14T13:32:01.819Z,100284.48
2023-02-14T13:33:27.278Z,100275.98
2023-02-14T13:34:41.058Z,100289.91
2023-02-14T13:35:49.725Z,100285.36
2023-02-14T13:37:03.607Z,100285.36
2023-02-14T13:38:11.409Z,100291.17
2023-02-14T13:39:29.339Z,100287.36
2023-02-14T13:40:36.246Z,100298.61
2023-02-14T13:41:42.805Z,100287.45
2023-02-14T13:42:52.664Z,100297.23
2023-02-14T13:44:01.970Z,100297.86
2023-02-14T13:45:06.468Z,100297.86
2023-02-14T13:46:16.540Z,100301.70
2023-02-14T13:47:28.091Z,100295.20
2023-02-14T13:48:33.358Z,100301.48
2023-02-14T13:49:43.014Z,100299.05
2023-02-14T13:50:56.048Z,100299.05
2023-02-14T13:52:04.345Z,100280.35
2023-02-14T13:53:14.948Z,100306.17
2023-02-14T13:54:36.853Z,100306.17
2023-02-14T13:55:55.321Z,100311.92
2023-02-14T13:57:05.057Z,100280.66
2023-02-14T13:58:11.162Z,100304.78
2023-02-14T13:59:24.085Z,100282.24
2023-02-14T14:00:42.524Z,100282.24
2023-02-14T14:01:47.650Z,100307.66
2023-02-14T14:02:54.577Z,100301.16
2023-02-14T14:04:04.559Z,100307.23
2023-02-14T14:05:33.896Z,100290.88
2023-02-14T14:07:02.089Z,100323.38
2023-02-14T14:08:27.563Z,100309.25
2023-02-14T14:09:45.979Z,100304.25
2023-02-14T14:10:54.267Z,100301.80
2023-02-14T14:12:00.399Z,100301.80
2023-02-14T14:13:06.979Z,100291.19
2023-02-14T14:14:36.573Z,100291.19
2023-02-14T14:15:37.934Z,100320.81
2023-02-14T14:16:43.666Z,100319.97
2023-02-14T14:17:52.166Z,100332.50
2023-02-14T14:19:11.363Z,100324.20
2023-02-14T14:20:22.731Z,100301.05
2023-02-14T14:21:53.893Z,100324.20
2023-02-14T14:22:55.893Z,100310.20
2023-02-14T14:24:27.718Z,100327.73
2023-02-14T14:25:41.439Z,100328.34
2023-02-14T14:27:03.409Z,100320.28
2023-02-14T14:28:22.399Z,100336.97
2023-02-14T14:29:47.338Z,100339.17
2023-02-14T14:30:59.100Z,100323.95
2023-02-14T14:32:06.207Z,100343.30
2023-02-14T14:33:27.432Z,100343.30
2023-02-14T14:34:32.903Z,100329.02
2023-02-14T14:35:37.035Z,100351.77
2023-02-14T14:36:42.770Z,100353.03
2023-02-14T14:38:02.239Z,100353.03
2023-02-14T14:39:07.215Z,100356.23
2023-02-14T14:40:21.584Z,100360.14
2023-02-14T14:41:29.721Z,100374.27
2023-02-14T14:42:39.882Z,100374.27
2023-02-14T14:43:44.725Z,100362.13
2023-02-14T14:45:03.250Z,100358.95
2023-02-14T14:46:10.737Z,100365.95
2023-02-14T14:47:20.625Z,100361.23
2023-02-14T14:48:40.061Z,100355.92
2023-02-14T14:49:47.035Z,100368.55
2023-02-14T14:50:52.928Z,100373.97
2023-02-14T14:52:01.718Z,100379.08